Página principal
METAR-TAF:

METAR-TAF

Aeroportos :

Guelmim, Marrocos

latitude: 29-01-00N, longitude: 10-04-04W, altura: 301 m

Observação actual do tempo

O boletim foi feito há 21 minutos, às 12:00 UTC
Vento 9 kt de oeste, variando entre sudoeste e nor-noroeste
Temperatura 34°C
Humidade 5%
Pressão 1017 hPa
Visibilidade: 4000 m
bruma,

METAR: GMAG 151200Z 27009KT 230V330 4000 HZ NSC 34/M11 Q1017 NOSIG

Hora: 13:21 (12:21 UTC)

Previsão

O boletim foi feito há 1 hora e 21 minutos, às 11:00 UTC
Previsão válida de 15 às 12 UTC a 16 às 18 UTC
Vento 6 kt de sudoeste
Visibilidade: 4000 m
bruma
Tornando-se
de 15 às 18 UTC a 15 às 20 UTC
Visibilidade: 6000 m

TAF: GMAG 151100Z 1512/1618 22006KT 4000 HZ NSC BECMG 1518/1520 6000 NSW

Observações e previsões do tempo de mais de 4000 aeroportos (mensagens METAR e TAF).

As estações disponíveis são os pontos amarelos e vermelhos sobre o mapa.

Mova o rato sobre o mapa para ver o nome da estação.

Depois clique no ponto para visualizar as observações e previsões meteorológicas.

Para alterar o mapa : clique nos botões verdes com uma cruz preta para aumentar o zoom; no botão verde com uma pitada de zoom; ou nas setas verdes para mapas adjacentes.


METAR-TAF: